Terminal Aerodrome Forecast
Issued by NWS Wakefield, VA

Home | Current Version | Previous Version | Text Only | Print | Product List | Glossary On
Versions: 1 2 3 4 5 6 7 8 9 10 11 12
000
FTUS41 KAKQ 241738
TAFORF
TAF
KORF 241738Z 2418/2518 15008KT P6SM SCT035
     FM242100 14010KT P6SM SCT050
     FM250000 15007KT P6SM SCT150
     FM250900 00000KT P6SM BKN015
     FM251500 18007KT P6SM SCT060=

USA.gov is the U.S. government's official web portal to all federal, state and local government web resources and services.